Time;durP1;ratioP1;P1;durP2;ratioP2;P2;SDS_P1;SDS_P2;PMS_P1;PMS_P2;Temp;Humidity;BMP_temperature;BMP_pressure;BME280_temperature;BME280_humidity;BME280_pressure;Samples;Min_cycle;Max_cycle;Signal;HPM_P1;HPM_P2
2023/11/14 00:01:45;;;;;;;;;3.00;3.00;;;;;13.89;68.58;100511.75;5077477;28;45533;-78
2023/11/14 00:04:10;;;;;;;;;5.75;2.25;;;;;13.89;68.59;100501.25;5060885;28;45321;-79
2023/11/14 00:06:35;;;;;;;;;4.75;2.00;;;;;13.89;68.89;100505.66;5068737;28;45414;-78
2023/11/14 00:09:01;;;;;;;;;8.00;3.50;;;;;13.86;68.56;100498.75;5073825;28;72660;-78
2023/11/14 00:11:28;;;;;;;;;6.50;3.25;;;;;13.84;68.37;100508.47;5029456;28;72501;-78
2023/11/14 00:13:53;;;;;;;;;5.25;3.50;;;;;13.84;68.57;100517.22;5058206;28;45410;-79
2023/11/14 00:16:19;;;;;;;;;3.50;1.25;;;;;13.80;68.55;100509.53;5040459;28;46011;-77
2023/11/14 00:18:44;;;;;;;;;6.75;2.75;;;;;13.78;68.19;100501.72;5079033;28;61163;-77
2023/11/14 00:21:10;;;;;;;;;6.00;3.00;;;;;13.77;68.28;100507.03;5063097;28;47217;-77
2023/11/14 00:23:35;;;;;;;;;5.75;2.25;;;;;13.76;68.21;100498.31;5074846;28;45378;-79
2023/11/14 00:26:01;;;;;;;;;5.50;2.50;;;;;13.77;68.26;100499.16;5075453;28;65625;-80
2023/11/14 00:28:26;;;;;;;;;3.25;2.00;;;;;13.75;68.22;100501.00;5059390;28;45552;-79
2023/11/14 00:30:52;;;;;;;;;1.00;1.00;;;;;13.74;68.51;100502.78;5061814;28;45389;-79
2023/11/14 00:33:17;;;;;;;;;4.00;2.00;;;;;13.72;68.04;100509.00;5061710;28;73916;-79
2023/11/14 00:35:43;;;;;;;;;2.25;2.25;;;;;13.73;68.50;100508.09;5076937;28;68816;-79
2023/11/14 00:38:09;;;;;;;;;3.00;2.00;;;;;13.73;68.33;100511.59;5059584;28;45535;-79
2023/11/14 00:40:34;;;;;;;;;4.25;2.00;;;;;13.72;68.65;100515.13;5080997;28;46233;-78
2023/11/14 00:42:59;;;;;;;;;5.00;3.00;;;;;13.76;68.57;100518.50;5080397;28;72029;-78
2023/11/14 00:45:27;;;;;;;;;6.25;2.50;;;;;13.76;68.73;100510.63;5057372;28;45620;-79
2023/11/14 00:47:52;;;;;;;;;7.50;2.50;;;;;13.75;68.50;100525.50;5073952;28;46367;-79
2023/11/14 00:50:17;;;;;;;;;7.75;3.00;;;;;13.74;68.21;100509.78;5057595;28;45507;-79
2023/11/14 00:52:46;;;;;;;;;6.50;2.50;;;;;13.73;68.25;100506.31;5059706;28;45277;-79
2023/11/14 00:55:11;;;;;;;;;4.25;3.75;;;;;13.74;68.40;100504.53;5067031;28;45465;-79
2023/11/14 00:57:36;;;;;;;;;4.25;2.00;;;;;13.75;68.75;100496.59;5061080;28;73485;-78
2023/11/14 01:00:03;;;;;;;;;5.25;2.00;;;;;13.75;68.29;100501.00;5065216;28;75718;-77
2023/11/14 01:02:28;;;;;;;;;2.00;2.00;;;;;13.75;68.20;100522.03;5065365;28;45312;-79
2023/11/14 01:04:53;;;;;;;;;5.00;3.00;;;;;13.74;68.56;100538.72;5080163;28;68639;-78
2023/11/14 01:07:19;;;;;;;;;4.75;3.50;;;;;13.73;68.18;100516.00;5058721;28;67020;-79
2023/11/14 01:09:44;;;;;;;;;10.50;3.75;;;;;13.74;68.13;100534.34;5037654;28;50666;-79
2023/11/14 01:12:09;;;;;;;;;5.00;3.00;;;;;13.75;67.96;100536.03;5062553;28;56129;-80
2023/11/14 01:14:35;;;;;;;;;3.25;2.50;;;;;13.73;67.50;100534.41;5049856;28;45288;-79
2023/11/14 01:17:00;;;;;;;;;4.25;1.25;;;;;13.73;68.06;100553.66;5042764;28;55283;-80
2023/11/14 01:19:25;;;;;;;;;5.25;3.00;;;;;13.70;67.98;100553.78;5060177;28;46340;-79
2023/11/14 01:21:52;;;;;;;;;5.75;2.50;;;;;13.68;68.10;100561.72;5073944;28;63251;-79
2023/11/14 01:24:17;;;;;;;;;5.00;3.00;;;;;13.67;67.93;100580.25;5076419;28;45487;-81
2023/11/14 01:26:42;;;;;;;;;7.25;2.25;;;;;13.65;67.78;100579.41;5058606;28;55076;-80
2023/11/14 01:29:08;;;;;;;;;4.00;2.00;;;;;13.64;68.03;100590.88;5078884;28;75536;-79
2023/11/14 01:31:33;;;;;;;;;5.00;1.25;;;;;13.64;68.28;100601.41;5060418;28;45458;-79
2023/11/14 01:33:58;;;;;;;;;3.25;1.25;;;;;13.64;68.37;100583.00;5076832;28;69159;-79
2023/11/14 01:36:24;;;;;;;;;6.00;1.00;;;;;13.64;68.21;100602.25;5071972;28;45417;-79
2023/11/14 01:38:50;;;;;;;;;4.50;2.00;;;;;13.63;68.37;100591.78;5073124;28;76078;-78
2023/11/14 01:41:15;;;;;;;;;2.75;1.75;;;;;13.61;68.47;100598.88;5078013;28;45972;-79
2023/11/14 01:43:43;;;;;;;;;2.00;1.00;;;;;13.61;68.23;100598.88;5068277;28;68003;-78
2023/11/14 01:46:15;;;;;;;;;4.25;2.75;;;;;13.63;68.23;100591.78;5050968;28;45775;-78
2023/11/14 01:48:40;;;;;;;;;5.75;1.75;;;;;13.59;68.64;100595.47;5059422;28;46223;-77
2023/11/14 01:51:06;;;;;;;;;4.00;2.00;;;;;13.61;68.92;100596.25;5056120;28;51253;-78
2023/11/14 01:53:32;;;;;;;;;10.00;3.00;;;;;13.61;68.52;100598.88;5065050;28;70313;-77
2023/11/14 01:55:57;;;;;;;;;4.25;2.00;;;;;13.60;68.62;100594.56;5049227;28;45588;-78
2023/11/14 01:58:23;;;;;;;;;6.25;1.50;;;;;13.58;68.31;100584.09;5077635;28;46063;-78
2023/11/14 02:00:48;;;;;;;;;4.50;2.00;;;;;13.61;68.97;100583.09;5058718;28;45501;-78
2023/11/14 02:03:14;;;;;;;;;4.25;2.00;;;;;13.61;68.45;100568.19;5073697;28;68121;-77
2023/11/14 02:05:39;;;;;;;;;1.00;1.00;;;;;13.61;68.83;100573.44;5068886;28;59172;-78
2023/11/14 02:08:04;;;;;;;;;3.50;3.00;;;;;13.64;68.84;100580.34;5051389;28;75338;-78
2023/11/14 02:10:30;;;;;;;;;8.00;3.75;;;;;13.62;68.93;100582.19;5057805;28;73281;-79
2023/11/14 02:12:55;;;;;;;;;8.00;1.00;;;;;13.64;68.77;100606.66;5047774;28;66888;-80
2023/11/14 02:15:21;;;;;;;;;2.75;1.00;;;;;13.65;69.01;100601.34;5041167;28;45341;-79
2023/11/14 02:17:46;;;;;;;;;3.50;2.25;;;;;13.65;69.06;100598.69;5043364;28;47188;-80
2023/11/14 02:20:12;;;;;;;;;5.50;3.00;;;;;13.67;68.87;100599.50;5077256;28;68706;-80
2023/11/14 02:22:38;;;;;;;;;4.00;3.00;;;;;13.67;68.84;100591.59;5060172;28;45443;-80
2023/11/14 02:25:04;;;;;;;;;5.75;2.00;;;;;13.67;68.96;100590.75;5042521;28;45602;-80
2023/11/14 02:27:29;;;;;;;;;8.00;3.00;;;;;13.71;68.91;100596.75;5071656;28;45420;-80
2023/11/14 02:29:55;;;;;;;;;9.00;3.00;;;;;13.70;69.09;100593.22;5043702;28;45359;-81
2023/11/14 02:32:20;;;;;;;;;4.75;2.00;;;;;13.70;69.20;100589.75;5069899;28;45499;-80
2023/11/14 02:34:45;;;;;;;;;5.50;2.00;;;;;13.70;68.95;100581.88;5042414;28;45568;-81
2023/11/14 02:37:11;;;;;;;;;3.75;2.25;;;;;13.68;69.41;100587.19;5069153;28;71928;-81
2023/11/14 02:39:36;;;;;;;;;6.75;2.25;;;;;13.71;68.90;100591.47;5054645;28;73177;-81
2023/11/14 02:42:02;;;;;;;;;6.50;2.00;;;;;13.68;69.23;100595.91;5076826;28;45502;-80
2023/11/14 02:44:27;;;;;;;;;10.00;5.00;;;;;13.71;69.15;100586.22;5042096;28;51033;-79
2023/11/14 02:46:53;;;;;;;;;2.25;2.00;;;;;13.70;69.46;100590.59;5058956;28;46145;-79
2023/11/14 02:49:48;;;;;;;;;4.50;1.00;;;;;13.73;69.28;100603.63;5079549;28;45655;-80
2023/11/14 02:52:13;;;;;;;;;8.75;2.00;;;;;13.72;69.37;100601.06;5060182;28;45787;-80
2023/11/14 02:54:39;;;;;;;;;5.50;2.75;;;;;13.71;69.46;100602.00;5077863;28;73345;-79
2023/11/14 02:57:09;;;;;;;;;6.75;2.50;;;;;13.71;69.18;100594.94;5054377;28;74553;-79
2023/11/14 02:59:34;;;;;;;;;5.00;2.75;;;;;13.68;69.21;100601.19;5067502;28;45252;-79
2023/11/14 03:02:00;;;;;;;;;4.50;1.25;;;;;13.72;69.20;100603.69;5042741;28;45324;-79
2023/11/14 03:04:25;;;;;;;;;4.50;2.50;;;;;13.73;69.42;100606.25;5056604;28;72110;-79
2023/11/14 03:06:51;;;;;;;;;6.50;3.00;;;;;13.72;69.10;100595.81;5079433;28;75191;-79
2023/11/14 03:09:19;;;;;;;;;4.25;1.00;;;;;13.71;69.41;100600.22;5078271;28;73166;-79
2023/11/14 03:11:45;;;;;;;;;6.50;2.50;;;;;13.71;69.38;100600.22;5061921;28;45561;-80
2023/11/14 03:14:10;;;;;;;;;4.00;2.00;;;;;13.69;69.30;100594.16;5077973;28;46935;-79
2023/11/14 03:16:36;;;;;;;;;2.50;1.00;;;;;13.70;69.84;100582.72;5050086;28;46064;-79
2023/11/14 03:19:02;;;;;;;;;8.25;1.25;;;;;13.68;69.34;100582.78;5054682;28;45848;-79
2023/11/14 03:21:27;;;;;;;;;3.50;2.00;;;;;13.71;69.75;100584.44;5062786;28;45372;-81
2023/11/14 03:23:53;;;;;;;;;6.25;2.00;;;;;13.71;69.58;100584.44;5067695;28;72986;-80
2023/11/14 03:26:18;;;;;;;;;1.75;1.75;;;;;13.71;69.63;100584.44;5077978;28;45369;-80
2023/11/14 03:28:43;;;;;;;;;9.50;2.25;;;;;13.73;69.69;100579.97;5053776;28;45373;-80
2023/11/14 03:31:09;;;;;;;;;5.75;2.00;;;;;13.73;69.84;100582.59;5069706;28;51829;-80
2023/11/14 03:33:34;;;;;;;;;3.00;2.50;;;;;13.74;69.56;100597.47;5071810;28;70912;-81
2023/11/14 03:36:00;;;;;;;;;5.50;4.00;;;;;13.75;69.87;100591.25;5056514;28;45844;-81
2023/11/14 03:38:25;;;;;;;;;4.25;2.00;;;;;13.74;69.89;100584.31;5047778;28;47986;-80
2023/11/14 03:40:50;;;;;;;;;8.25;4.00;;;;;13.77;70.03;100593.84;5037354;28;60329;-80
2023/11/14 03:43:16;;;;;;;;;8.75;3.00;;;;;13.78;69.75;100585.03;5079141;28;72771;-81
2023/11/14 03:45:42;;;;;;;;;6.00;2.00;;;;;13.79;69.66;100577.09;5061046;28;48029;-80
2023/11/14 03:48:07;;;;;;;;;6.00;2.25;;;;;13.81;69.82;100561.22;5063100;28;45792;-80
2023/11/14 03:50:33;;;;;;;;;4.00;2.00;;;;;13.81;69.44;100569.97;5079262;28;45391;-77
2023/11/14 03:52:58;;;;;;;;;9.00;2.00;;;;;13.82;69.60;100571.66;5061207;28;45305;-78
2023/11/14 03:55:23;;;;;;;;;3.75;2.00;;;;;13.85;69.74;100566.28;5044720;28;71564;-80
2023/11/14 03:57:49;;;;;;;;;6.25;3.00;;;;;13.84;69.49;100561.94;5050290;28;45309;-79
2023/11/14 04:00:14;;;;;;;;;8.75;3.00;;;;;13.85;70.11;100558.38;5080154;28;67389;-79
2023/11/14 04:02:40;;;;;;;;;6.75;3.25;;;;;13.84;69.79;100554.03;5079655;28;45541;-78
2023/11/14 04:05:06;;;;;;;;;6.00;2.00;;;;;13.88;69.92;100548.66;5052778;28;47303;-78
2023/11/14 04:07:31;;;;;;;;;2.75;1.00;;;;;13.87;69.92;100550.44;5060463;28;45402;-78
2023/11/14 04:09:56;;;;;;;;;4.00;2.00;;;;;13.85;69.59;100549.66;5078235;28;45420;-77
2023/11/14 04:12:22;;;;;;;;;9.75;2.50;;;;;13.86;70.07;100549.59;5077777;28;57734;-77
2023/11/14 04:14:48;;;;;;;;;3.25;1.00;;;;;13.84;69.50;100550.56;5062200;28;46169;-77
2023/11/14 04:17:13;;;;;;;;;10.00;2.25;;;;;13.80;70.02;100551.63;5038827;28;45476;-78
2023/11/14 04:19:39;;;;;;;;;10.25;3.00;;;;;13.81;70.09;100559.47;5052080;28;45650;-77
2023/11/14 04:22:04;;;;;;;;;4.50;2.25;;;;;13.79;70.03;100563.94;5079324;28;73174;-77
2023/11/14 04:24:31;;;;;;;;;7.00;3.75;;;;;13.73;70.31;100569.44;5079610;28;59783;-78
2023/11/14 04:26:58;;;;;;;;;4.50;3.00;;;;;13.70;69.90;100563.47;5055549;28;45344;-78
2023/11/14 04:29:24;;;;;;;;;5.50;2.00;;;;;13.68;70.17;100588.03;5081047;28;45403;-78
2023/11/14 04:31:49;;;;;;;;;2.00;2.00;;;;;13.63;70.35;100576.88;5043404;28;46114;-77
2023/11/14 04:34:15;;;;;;;;;7.50;2.00;;;;;13.59;70.34;100580.53;5078366;28;75532;-84
2023/11/14 04:36:41;;;;;;;;;3.75;2.00;;;;;13.56;70.71;100577.19;5074502;28;72278;-84
2023/11/14 04:39:06;;;;;;;;;3.25;2.00;;;;;13.52;70.54;100584.34;5081801;28;45910;-85
2023/11/14 04:41:31;;;;;;;;;5.50;1.75;;;;;13.49;70.94;100584.47;5076968;28;45399;-85
2023/11/14 04:43:57;;;;;;;;;3.25;2.00;;;;;13.47;71.03;100594.19;5064092;28;75686;-86
2023/11/14 04:46:23;;;;;;;;;4.75;3.00;;;;;13.42;71.39;100591.78;5058527;28;65425;-85
2023/11/14 04:48:48;;;;;;;;;3.00;1.00;;;;;13.39;71.05;100602.41;5077071;28;45536;-86
2023/11/14 04:51:14;;;;;;;;;7.75;2.25;;;;;13.38;71.42;100605.94;5045210;28;48854;-87
2023/11/14 04:53:39;;;;;;;;;4.25;2.50;;;;;13.38;71.65;100620.88;5061583;28;74462;-88
2023/11/14 04:56:05;;;;;;;;;3.25;1.00;;;;;13.40;71.28;100626.91;5049108;28;72825;-87
2023/11/14 04:58:31;;;;;;;;;8.75;2.00;;;;;13.38;71.45;100608.56;5080389;28;45347;-87
2023/11/14 05:00:56;;;;;;;;;3.75;2.00;;;;;13.38;72.05;100608.56;5075952;28;45426;-87
2023/11/14 05:03:21;;;;;;;;;6.75;3.25;;;;;13.35;71.62;100607.84;5050651;28;45922;-87
2023/11/14 05:05:47;;;;;;;;;5.50;2.75;;;;;13.35;72.18;100602.59;5071661;28;55906;-87
2023/11/14 05:08:12;;;;;;;;;3.00;3.00;;;;;13.37;71.85;100574.47;5052589;28;57591;-88
2023/11/14 05:10:37;;;;;;;;;2.00;0.00;;;;;13.39;71.74;100564.75;5052646;28;47055;-88
2023/11/14 05:13:03;;;;;;;;;1.00;1.00;;;;;13.39;71.80;100528.81;5078778;28;75400;-84
2023/11/14 05:15:28;;;;;;;;;5.00;1.75;;;;;13.41;71.70;100524.34;5059154;28;45412;-83
2023/11/14 05:17:55;;;;;;;;;4.50;2.00;;;;;13.42;72.06;100541.84;5067578;28;45202;-86
2023/11/14 05:20:21;;;;;;;;;2.00;2.00;;;;;13.43;72.36;100556.66;5047668;28;45246;-82
2023/11/14 05:22:46;;;;;;;;;2.50;2.50;;;;;13.44;72.36;100558.38;5051621;28;55213;-82
2023/11/14 05:25:11;;;;;;;;;5.25;3.00;;;;;13.45;72.17;100540.84;5079020;28;45352;-82
2023/11/14 05:27:37;;;;;;;;;6.25;3.00;;;;;13.49;72.39;100521.38;5041520;28;45424;-83
2023/11/14 05:30:04;;;;;;;;;4.25;1.75;;;;;13.50;72.79;100517.84;5055327;28;45408;-83
2023/11/14 05:32:29;;;;;;;;;3.00;2.25;;;;;13.51;72.26;100524.81;5080767;28;46767;-85
2023/11/14 05:34:54;;;;;;;;;7.75;2.00;;;;;13.51;72.41;100532.69;5050989;28;72274;-85
2023/11/14 05:37:20;;;;;;;;;4.25;1.00;;;;;13.54;72.68;100563.25;5060297;28;68039;-85
2023/11/14 05:39:45;;;;;;;;;4.50;2.50;;;;;13.55;72.86;100573.72;5076499;28;73079;-86
2023/11/14 05:42:10;;;;;;;;;3.25;2.00;;;;;13.55;72.66;100565.81;5058980;28;72603;-86
2023/11/14 05:44:36;;;;;;;;;4.25;2.25;;;;;13.57;72.76;100565.75;5043311;28;72287;-87
2023/11/14 05:47:01;;;;;;;;;6.25;3.25;;;;;13.57;72.56;100545.56;5059689;28;45359;-85
2023/11/14 05:49:27;;;;;;;;;8.75;2.25;;;;;13.58;72.32;100528.00;5053890;28;45524;-84
2023/11/14 05:51:52;;;;;;;;;5.00;3.50;;;;;13.60;72.57;100534.09;5077173;28;66988;-85
2023/11/14 05:54:17;;;;;;;;;5.25;3.25;;;;;13.62;72.21;100550.66;5078252;28;62751;-85
2023/11/14 05:56:43;;;;;;;;;2.00;1.25;;;;;13.63;72.48;100540.06;5044045;28;69147;-86
2023/11/14 05:59:09;;;;;;;;;5.25;5.25;;;;;13.65;72.41;100563.63;5080344;28;73657;-87
2023/11/14 06:01:34;;;;;;;;;4.75;2.25;;;;;13.68;72.25;100572.25;5063729;28;45383;-87
2023/11/14 06:03:59;;;;;;;;;6.00;2.25;;;;;13.70;72.26;100548.53;5035093;28;49864;-89
2023/11/14 06:06:26;;;;;;;;;5.00;2.75;;;;;13.70;71.78;100535.38;5079704;28;45218;-88
2023/11/14 06:08:52;;;;;;;;;4.25;3.00;;;;;13.70;71.76;100516.13;5083635;28;45350;-88
2023/11/14 06:11:18;;;;;;;;;5.00;2.25;;;;;13.74;71.64;100517.69;5076188;28;69875;-87
2023/11/14 06:13:45;;;;;;;;;4.25;1.75;;;;;13.75;71.40;100512.38;5060416;28;52902;-87
2023/11/14 06:16:10;;;;;;;;;4.50;2.00;;;;;13.78;71.11;100508.75;5051884;28;45456;-84
2023/11/14 06:18:35;;;;;;;;;3.00;3.00;;;;;13.77;71.04;100507.03;5061789;28;72017;-84
2023/11/14 06:21:01;;;;;;;;;2.00;2.00;;;;;13.78;71.13;100508.75;5075960;28;76327;-85
2023/11/14 06:23:26;;;;;;;;;4.75;2.00;;;;;13.80;71.12;100513.03;5061777;28;45777;-84
2023/11/14 06:25:53;;;;;;;;;4.75;2.00;;;;;13.81;71.10;100506.84;5052020;28;45321;-83
2023/11/14 06:28:18;;;;;;;;;4.00;2.75;;;;;13.82;70.97;100513.81;5081353;28;45477;-86
2023/11/14 06:30:43;;;;;;;;;5.00;2.00;;;;;13.82;71.07;100513.81;5078067;28;45421;-84
2023/11/14 06:33:09;;;;;;;;;4.00;1.75;;;;;13.83;70.94;100520.78;5060529;28;57442;-82
2023/11/14 06:35:34;;;;;;;;;5.00;3.00;;;;;13.86;71.28;100523.28;5057430;28;45603;-74
2023/11/14 06:38:00;;;;;;;;;5.50;3.00;;;;;13.85;70.85;100539.13;5079645;28;45275;-77
2023/11/14 06:40:25;;;;;;;;;6.00;2.00;;;;;13.86;70.90;100538.19;5061800;28;50884;-72
2023/11/14 06:42:50;;;;;;;;;2.50;2.00;;;;;13.88;71.04;100561.81;5079119;28;71761;-74
2023/11/14 06:45:17;;;;;;;;;6.50;3.00;;;;;13.86;71.18;100551.34;5046642;28;59694;-76
2023/11/14 06:47:42;;;;;;;;;5.25;2.50;;;;;13.90;71.00;100554.69;5045030;28;45562;-77
2023/11/14 06:50:08;;;;;;;;;5.00;3.00;;;;;13.92;71.04;100537.09;5080916;28;46314;-71
2023/11/14 06:52:34;;;;;;;;;5.00;2.00;;;;;13.92;71.06;100523.94;5052110;28;45782;-74
2023/11/14 06:55:00;;;;;;;;;4.00;3.00;;;;;13.92;71.46;100522.16;5066966;28;45321;-77
2023/11/14 06:57:25;;;;;;;;;7.50;2.00;;;;;13.89;71.20;100514.38;5046946;28;45623;-79
2023/11/14 06:59:51;;;;;;;;;8.50;4.25;;;;;13.93;71.48;100515.09;5050526;28;75975;-78
2023/11/14 07:02:16;;;;;;;;;4.00;2.00;;;;;13.92;71.54;100522.16;5066086;28;70753;-79
2023/11/14 07:04:42;;;;;;;;;5.00;2.75;;;;;13.90;71.32;100512.59;5030680;28;45440;-77
2023/11/14 07:07:07;;;;;;;;;5.50;3.25;;;;;13.91;71.43;100503.81;5081645;28;45427;-73
2023/11/14 07:09:33;;;;;;;;;4.50;2.00;;;;;13.91;71.49;100504.66;5057293;28;45435;-73
2023/11/14 07:11:58;;;;;;;;;6.25;3.00;;;;;13.93;71.36;100536.16;5070690;28;60050;-73
2023/11/14 07:14:25;;;;;;;;;4.00;3.00;;;;;13.94;71.19;100554.50;5054669;28;62660;-77
2023/11/14 07:16:52;;;;;;;;;3.25;2.00;;;;;13.93;71.58;100551.94;5052310;28;45269;-70
2023/11/14 07:19:17;;;;;;;;;3.75;2.25;;;;;13.93;71.59;100531.75;5079396;28;45937;-72
2023/11/14 07:21:46;;;;;;;;;5.25;2.00;;;;;13.94;71.23;100530.84;5053018;28;45470;-72
2023/11/14 07:24:12;;;;;;;;;4.25;3.00;;;;;13.94;71.54;100511.56;5062775;28;45344;-71
2023/11/14 07:26:37;;;;;;;;;5.25;2.00;;;;;13.96;71.32;100515.81;5078793;28;45678;-78
2023/11/14 07:29:04;;;;;;;;;7.25;4.25;;;;;13.99;71.49;100514.84;5080720;28;45469;-66
2023/11/14 07:31:29;;;;;;;;;5.75;3.75;;;;;14.00;71.83;100517.38;5063329;28;45351;-73
2023/11/14 07:33:55;;;;;;;;;6.50;2.50;;;;;14.00;71.46;100512.13;5081149;28;46830;-74
2023/11/14 07:36:20;;;;;;;;;4.25;3.00;;;;;14.00;71.34;100537.59;5039254;28;69045;-72
2023/11/14 07:38:45;;;;;;;;;4.50;1.75;;;;;13.96;71.66;100531.59;5075066;28;75384;-68
2023/11/14 07:41:11;;;;;;;;;2.50;2.50;;;;;13.98;71.66;100527.13;5061540;28;72165;-68
2023/11/14 07:43:37;;;;;;;;;2.75;1.25;;;;;13.96;71.91;100528.97;5055575;28;45340;-68
2023/11/14 07:46:03;;;;;;;;;4.00;1.50;;;;;13.96;72.17;100523.72;5073659;28;46431;-69
2023/11/14 07:48:29;;;;;;;;;6.25;3.00;;;;;13.96;71.71;100538.66;5074647;28;45367;-70
2023/11/14 07:50:55;;;;;;;;;2.25;1.00;;;;;13.91;72.11;100530.97;5078752;28;45817;-69
2023/11/14 07:53:20;;;;;;;;;2.00;2.00;;;;;13.95;71.90;100540.44;5037126;28;69510;-79
2023/11/14 07:55:45;;;;;;;;;3.25;3.00;;;;;13.95;71.91;100532.56;5059012;28;45575;-83
2023/11/14 07:58:12;;;;;;;;;3.75;3.00;;;;;13.95;72.21;100535.19;5074568;28;74600;-76
2023/11/14 08:00:38;;;;;;;;;5.50;3.00;;;;;13.97;72.06;100537.72;5059267;28;46305;-76
2023/11/14 08:03:03;;;;;;;;;6.00;3.00;;;;;13.99;72.25;100554.31;5061752;28;45427;-76
2023/11/14 08:05:32;;;;;;;;;7.00;2.25;;;;;14.01;72.23;100561.22;5057332;28;45570;-74
2023/11/14 08:07:57;;;;;;;;;1.50;1.50;;;;;14.05;72.06;100557.50;5077456;28;46953;-75
2023/11/14 08:10:23;;;;;;;;;3.00;1.25;;;;;14.07;72.10;100553.97;5072056;28;45522;-74
2023/11/14 08:12:48;;;;;;;;;3.75;2.25;;;;;14.10;72.03;100553.84;5074579;28;45488;-76
2023/11/14 08:15:13;;;;;;;;;5.25;2.75;;;;;14.17;72.02;100581.59;5059600;28;65187;-77
2023/11/14 08:17:39;;;;;;;;;6.00;2.00;;;;;14.19;72.05;100591.13;5078682;28;71580;-77
2023/11/14 08:20:05;;;;;;;;;5.25;3.00;;;;;14.24;71.85;100586.50;5054630;28;45503;-77
2023/11/14 08:22:30;;;;;;;;;4.00;3.25;;;;;14.25;71.90;100582.09;5066069;28;45447;-77
2023/11/14 08:24:56;;;;;;;;;6.25;3.00;;;;;14.26;72.25;100560.13;5061950;28;45569;-77
2023/11/14 08:27:21;;;;;;;;;9.75;2.00;;;;;14.30;72.36;100558.19;5060232;28;74107;-77
2023/11/14 08:29:47;;;;;;;;;6.25;3.00;;;;;14.31;72.19;100557.28;5079946;28;71013;-77
2023/11/14 08:32:16;;;;;;;;;2.75;2.00;;;;;14.32;72.06;100551.94;5040211;28;45476;-77
2023/11/14 08:34:41;;;;;;;;;6.00;4.00;;;;;14.29;72.15;100567.88;5046884;28;45243;-77
2023/11/14 08:37:06;;;;;;;;;3.25;1.50;;;;;14.30;71.97;100561.69;5050882;28;46797;-77
2023/11/14 08:39:32;;;;;;;;;6.75;2.50;;;;;14.32;72.04;100557.19;5061360;28;71924;-77
2023/11/14 08:41:57;;;;;;;;;7.00;3.00;;;;;14.32;72.70;100537.91;5051397;28;71493;-77
2023/11/14 08:44:23;;;;;;;;;9.50;2.25;;;;;14.32;72.43;100514.22;5045482;28;45519;-77
2023/11/14 08:46:49;;;;;;;;;7.00;2.00;;;;;14.34;72.47;100523.78;5062958;28;46150;-77
2023/11/14 08:49:14;;;;;;;;;5.75;3.00;;;;;14.33;72.53;100511.53;5055827;28;73096;-77
2023/11/14 08:51:40;;;;;;;;;7.75;3.00;;;;;14.33;72.51;100508.91;5075622;28;45569;-77
2023/11/14 08:54:05;;;;;;;;;4.00;1.00;;;;;14.34;72.75;100497.47;5039248;28;45389;-77
2023/11/14 08:56:31;;;;;;;;;5.25;1.00;;;;;14.34;72.78;100484.28;5052864;28;75340;-77
2023/11/14 08:58:57;;;;;;;;;4.00;2.75;;;;;14.37;72.79;100483.28;5078797;28;73271;-77
2023/11/14 09:01:24;;;;;;;;;1.75;1.50;;;;;14.37;72.50;100478.00;5038917;28;45473;-77
2023/11/14 09:03:49;;;;;;;;;4.75;3.00;;;;;14.35;72.96;100464.06;5046616;28;45519;-77
2023/11/14 09:06:14;;;;;;;;;6.25;2.75;;;;;14.33;72.83;100465.94;5080760;28;48179;-77
2023/11/14 09:08:40;;;;;;;;;3.50;2.00;;;;;14.37;72.96;100465.69;5054388;28;72079;-77
2023/11/14 09:11:05;;;;;;;;;3.75;2.50;;;;;14.35;72.81;100453.53;5061640;28;69353;-77
2023/11/14 09:13:33;;;;;;;;;3.75;3.50;;;;;14.40;72.71;100459.44;5061864;28;57384;-77
2023/11/14 09:15:58;;;;;;;;;6.00;4.25;;;;;14.39;72.73;100437.50;5055042;28;46649;-77
2023/11/14 09:18:24;;;;;;;;;4.75;2.50;;;;;14.40;73.18;100441.88;5060372;28;65032;-77
2023/11/14 09:20:50;;;;;;;;;6.75;3.00;;;;;14.41;73.16;100440.94;5077276;28;45279;-77
2023/11/14 09:23:15;;;;;;;;;7.25;4.00;;;;;14.45;72.55;100465.34;5069535;28;45487;-77
2023/11/14 09:25:41;;;;;;;;;5.50;2.00;;;;;14.46;73.17;100464.41;5069874;28;66289;-77
2023/11/14 09:28:07;;;;;;;;;3.00;2.50;;;;;14.47;72.50;100468.75;5077073;28;45532;-77
2023/11/14 09:30:33;;;;;;;;;9.75;8.00;;;;;14.48;72.78;100465.19;5057412;28;45277;-77
2023/11/14 09:32:59;;;;;;;;;10.50;6.50;;;;;14.50;72.47;100473.88;5062304;28;45580;-78
2023/11/14 09:35:24;;;;;;;;;51.75;38.25;;;;;14.50;72.30;100473.88;5076829;28;45887;-77
2023/11/14 09:37:50;;;;;;;;;3.75;3.00;;;;;14.52;72.60;100465.91;5048019;28;45348;-77
2023/11/14 09:40:20;;;;;;;;;5.00;3.00;;;;;14.53;72.62;100451.81;5067314;28;45490;-77
2023/11/14 09:42:45;;;;;;;;;7.50;2.75;;;;;14.53;72.29;100421.06;5045192;28;45711;-77
2023/11/14 09:45:12;;;;;;;;;6.75;3.75;;;;;14.54;72.25;100440.38;5061515;28;47040;-77
2023/11/14 09:47:37;;;;;;;;;5.50;3.00;;;;;14.53;72.50;100450.03;5052280;28;45743;-77
2023/11/14 09:50:04;;;;;;;;;5.75;2.00;;;;;14.54;72.49;100458.81;5045185;28;45306;-77
2023/11/14 09:52:30;;;;;;;;;6.50;3.00;;;;;14.52;72.59;100450.97;5080309;28;45216;-77
2023/11/14 09:54:56;;;;;;;;;5.75;2.75;;;;;14.53;72.55;100444.75;5045111;28;47283;-77
2023/11/14 09:57:21;;;;;;;;;6.50;3.00;;;;;14.54;72.04;100443.84;5061735;28;52472;-76
2023/11/14 09:59:47;;;;;;;;;7.50;4.00;;;;;14.57;72.23;100448.09;5058249;28;45199;-77
2023/11/14 10:02:12;;;;;;;;;7.75;3.25;;;;;14.54;72.03;100443.84;5038201;28;45369;-76
2023/11/14 10:04:39;;;;;;;;;6.75;3.00;;;;;14.58;72.20;100447.22;5075329;28;68366;-77
2023/11/14 10:07:08;;;;;;;;;4.25;2.00;;;;;14.63;71.77;100441.72;5051505;28;45380;-79
2023/11/14 10:09:35;;;;;;;;;8.00;2.25;;;;;14.66;71.97;100446.84;5045087;28;45281;-75
2023/11/14 10:12:02;;;;;;;;;7.50;3.50;;;;;14.67;72.36;100438.00;5055066;28;45613;-77
2023/11/14 10:14:28;;;;;;;;;7.00;4.00;;;;;14.71;71.92;100444.81;5065941;28;45424;-77
2023/11/14 10:16:58;;;;;;;;;7.75;2.50;;;;;14.69;71.74;100442.25;5039124;28;46043;-76
2023/11/14 10:19:23;;;;;;;;;3.50;1.50;;;;;14.67;71.87;100443.28;5044768;28;45332;-77
2023/11/14 10:21:49;;;;;;;;;6.75;3.00;;;;;14.67;71.78;100444.13;5061666;28;45329;-77
2023/11/14 10:24:15;;;;;;;;;4.25;3.00;;;;;14.64;72.04;100440.78;5078785;28;70331;-77
2023/11/14 10:26:52;;;;;;;;;5.25;3.50;;;;;14.65;71.74;100445.16;5079703;28;45900;-77
2023/11/14 10:29:19;;;;;;;;;5.00;2.75;;;;;14.66;71.70;100444.19;5050162;28;45429;-77
2023/11/14 10:31:45;;;;;;;;;4.00;3.00;;;;;14.65;72.00;100437.25;5044791;28;45438;-77
2023/11/14 10:34:31;;;;;;;;;8.00;3.25;;;;;14.67;71.94;100444.13;5050826;28;46243;-77
2023/11/14 10:36:57;;;;;;;;;3.50;2.00;;;;;14.67;71.53;100443.28;5054491;28;45458;-77
2023/11/14 10:39:24;;;;;;;;;5.50;3.25;;;;;14.65;71.34;100431.97;5061372;28;45261;-76
2023/11/14 10:41:50;;;;;;;;;5.00;4.00;;;;;14.63;71.39;100420.66;5070562;28;45300;-77
2023/11/14 10:44:16;;;;;;;;;4.25;3.00;;;;;14.65;71.61;100416.16;5036459;28;47381;-76
2023/11/14 10:46:54;;;;;;;;;3.50;3.00;;;;;14.64;71.62;100412.66;5049104;28;45450;-77
2023/11/14 10:49:22;;;;;;;;;5.25;3.00;;;;;14.64;71.09;100417.09;5038402;28;45341;-77
2023/11/14 10:51:50;;;;;;;;;5.00;3.00;;;;;14.63;70.91;100439.09;5057460;28;45364;-77
2023/11/14 10:54:16;;;;;;;;;3.00;2.00;;;;;14.59;70.99;100428.72;5046344;28;45293;-77
2023/11/14 10:56:42;;;;;;;;;3.25;2.00;;;;;14.61;70.58;100424.22;5056442;28;45321;-77
2023/11/14 10:59:15;;;;;;;;;6.25;3.00;;;;;14.63;71.09;100418.88;5028837;28;45423;-76
2023/11/14 11:01:47;;;;;;;;;4.50;2.75;;;;;14.63;71.14;100420.66;5069031;28;45302;-77
2023/11/14 11:04:17;;;;;;;;;5.50;3.50;;;;;14.59;70.94;100412.91;5061179;28;46230;-77
2023/11/14 11:06:47;;;;;;;;;3.50;2.00;;;;;14.59;71.06;100428.72;5034762;28;46538;-77
2023/11/14 11:09:15;;;;;;;;;4.00;2.00;;;;;14.56;71.48;100420.91;5042612;28;45242;-77
2023/11/14 11:11:50;;;;;;;;;5.00;2.00;;;;;14.58;71.68;100412.97;5052019;28;45340;-77
2023/11/14 11:14:17;;;;;;;;;9.00;2.00;;;;;14.56;71.77;100417.44;5066060;28;47253;-77
2023/11/14 11:16:47;;;;;;;;;5.50;2.00;;;;;14.55;72.33;100411.28;5054505;28;45471;-77
2023/11/14 11:19:28;;;;;;;;;3.00;2.00;;;;;14.54;71.78;100400.88;5057876;28;45303;-77